Terminal Aerodrome Forecast
Issued by NWS

Home | Current Version | Previous Version | Text Only | Print | Product List | Glossary On
Versions: 1 2 3 4 5 6 7 8 9 10 11 12 13 14 15 16 17 18
000
FTUS41 KGYX 061724
TAFLEB
TAF
KLEB 061724Z 0618/0718 VRB03KT P6SM SKC
     FM070000 00000KT P6SM SCT250
     FM071200 23004KT P6SM BKN090
     FM071600 23006KT P6SM BKN025 BKN080=

USA.gov is the U.S. government's official web portal to all federal, state and local government web resources and services.